Wed, 20 Oct 2021 14:24:51 UTC

Information for RPM brotli-1.0.7-10.fc32.s390x.rpm

ID20169803
Namebrotli
Version1.0.7
Release10.fc32
Epoch
Archs390x
SummaryLossless compression algorithm
DescriptionBrotli is a generic-purpose lossless compression algorithm that compresses data using a combination of a modern variant of the LZ77 algorithm, Huffman coding and 2nd order context modeling, with a compression ratio comparable to the best currently available general-purpose compression methods. It is similar in speed with deflate but offers more dense compression.
Build Time2020-01-28 15:05:09 GMT
Size339,658
415d912a554fb78c1f20a8c92682bced
LicenseMIT
Buildrootf32-build-19255404-1345396
Provides
brotli = 1.0.7-10.fc32
brotli(s390-64) = 1.0.7-10.fc32
Obsoletes No Obsoletes
Conflicts No Conflicts
Requires
libbrotli(s390-64) = 1.0.7-10.fc32
libc.so.6()(64bit)
libc.so.6(GLIBC_2.2)(64bit)
libc.so.6(GLIBC_2.3.4)(64bit)
libc.so.6(GLIBC_2.4)(64bit)
libm.so.6()(64bit)
libm.so.6(GLIBC_2.29)(64bit)
rpmlib(CompressedFileNames) <= 3.0.4-1
rpmlib(FileDigests) <= 4.6.0-1
rpmlib(PayloadFilesHavePrefix) <= 4.0-1
rpmlib(PayloadIsZstd) <= 5.4.18-1
rtld(GNU_HASH)
Recommends No Recommends
Suggests No Suggests
Supplements No Supplements
Enhances No Enhances
Files
1 through 4 of 4
Name ascending sort Size
/usr/bin/brotli809,320
/usr/lib/.build-id0
/usr/lib/.build-id/d20
/usr/lib/.build-id/d2/f25a32a3b12d9265e8eafa90b56c8b679a382626
Component of
Page:
1 through 50 of 1459 >>>
Buildroot descending sort Created State
f32-build-23388508-2261574 2020-10-16 07:28:35 expired
f32-build-23378754-2259636 2020-10-15 20:14:51 expired
f32-build-23356842-2250372 2020-10-14 12:36:40 expired
f32-build-23321395-2238080 2020-10-12 18:49:03 expired
f32-build-23314890-2235679 2020-10-12 10:33:54 expired
f32-build-23314562-2235679 2020-10-12 10:16:27 expired
f32-build-23295282-2233319 2020-10-11 20:25:44 expired
f32-build-23290469-2230597 2020-10-11 15:36:35 expired
f32-build-23287969-2230597 2020-10-11 13:35:29 expired
f32-build-23278526-2229768 2020-10-11 04:10:05 expired
f32-build-23253667-2222722 2020-10-09 20:35:16 expired
f32-build-23250131-2221457 2020-10-09 16:34:02 expired
f32-build-23250097-2221457 2020-10-09 16:31:41 expired
f32-build-23250068-2221457 2020-10-09 16:30:53 expired
f32-build-23225065-2210674 2020-10-08 04:54:53 expired
f32-build-23219092-2209405 2020-10-07 20:25:46 expired
f32-build-23218401-2208386 2020-10-07 18:39:14 expired
f32-build-23218029-2208386 2020-10-07 18:08:14 expired
f32-build-23210162-2205136 2020-10-07 08:47:25 expired
f32-build-23143429-2185470 2020-10-03 01:39:01 expired
f32-build-23112250-2171538 2020-09-30 19:54:46 expired
f32-build-23088131-2164488 2020-09-29 13:38:43 expired
f32-build-23088036-2163574 2020-09-29 13:25:12 expired
f32-build-23087330-2163574 2020-09-29 11:44:56 expired
f32-build-23075943-2161063 2020-09-28 19:34:48 expired
f32-build-23071098-2158808 2020-09-28 09:16:37 expired
f32-build-23071046-2158808 2020-09-28 09:04:14 expired
f32-build-23070723-2158808 2020-09-28 08:30:51 expired
f32-build-23070422-2158808 2020-09-28 08:18:32 expired
f32-build-23057367-2155126 2020-09-27 13:32:32 expired
f32-build-23014529-2148798 2020-09-25 18:31:41 expired
f32-build-23006577-2143360 2020-09-25 08:44:27 expired
f32-build-23006568-2143360 2020-09-25 08:44:07 expired
f32-build-23006558-2143360 2020-09-25 08:43:29 expired
f32-build-22993296-2143360 2020-09-24 22:04:43 expired
f32-build-22971169-2136242 2020-09-23 16:06:51 expired
f32-build-22952935-2131852 2020-09-22 20:39:29 expired
f32-build-22932373-2126107 2020-09-21 17:14:56 expired
f32-build-22930621-2123081 2020-09-21 13:56:09 expired
f32-build-22906595-2118430 2020-09-20 14:57:00 expired
f32-build-22906469-2118430 2020-09-20 14:40:17 expired
f32-build-22819265-2093716 2020-09-16 12:49:36 expired
f32-build-22819215-2093716 2020-09-16 12:44:10 expired
f32-build-22815814-2091540 2020-09-16 07:37:37 expired
f32-build-22815804-2091540 2020-09-16 07:37:24 expired
f32-build-22815786-2091540 2020-09-16 07:37:05 expired
f32-build-22782812-2081148 2020-09-14 13:40:26 expired
f32-build-22743820-2073759 2020-09-13 03:49:58 expired
f32-build-22715264-2067633 2020-09-12 00:13:25 expired
f32-build-22714339-2067633 2020-09-11 22:26:45 expired